Time;durP1;ratioP1;P1;durP2;ratioP2;P2;SDS_P1;SDS_P2;PMS_P1;PMS_P2;Temp;Humidity;BMP_temperature;BMP_pressure;BME280_temperature;BME280_humidity;BME280_pressure;Samples;Min_cycle;Max_cycle;Signal;HPM_P1;HPM_P2
2021/07/27 00:00:53;;;;;;;5.47;4.10;;;;;;;;;;5158713;27;20465;-80
2021/07/27 00:03:19;;;;;;;6.82;6.10;;;;;;;;;;5158340;27;20018;-79
2021/07/27 00:05:45;;;;;;;6.03;4.20;;;;;;;;;;5158284;27;20022;-80
2021/07/27 00:08:11;;;;;;;7.80;3.20;;;;;;;;;;5158141;27;20427;-80
2021/07/27 00:10:37;;;;;;;6.95;4.53;;;;;;;;;;5158061;27;20027;-79
2021/07/27 00:13:06;;;;;;;7.50;5.88;;;;;;;;;;5158099;27;20015;-80
2021/07/27 00:15:32;;;;;;;6.68;5.57;;;;;;;;;;5158459;27;20030;-80
2021/07/27 00:17:58;;;;;;;8.00;6.15;;;;;;;;;;5157899;27;20043;-80
2021/07/27 00:20:25;;;;;;;5.53;3.15;;;;;;;;;;5158429;27;20393;-79
2021/07/27 00:22:51;;;;;;;4.95;3.00;;;;;;;;;;5157982;27;20363;-80
2021/07/27 00:25:16;;;;;;;8.60;5.78;;;;;;;;;;5157844;27;20030;-80
2021/07/27 00:27:43;;;;;;;7.45;5.95;;;;;;;;;;5157832;27;20031;-79
2021/07/27 00:30:10;;;;;;;8.02;5.15;;;;;;;;;;5158283;27;20496;-80
2021/07/27 00:32:40;;;;;;;6.20;4.38;;;;;;;;;;5139082;27;20422;-80
2021/07/27 00:35:07;;;;;;;7.38;6.47;;;;;;;;;;5156856;27;20038;-80
2021/07/27 00:37:34;;;;;;;7.88;5.97;;;;;;;;;;5157926;27;20042;-79
2021/07/27 00:40:03;;;;;;;6.88;5.55;;;;;;;;;;5157486;27;20105;-80
2021/07/27 00:42:32;;;;;;;5.13;4.32;;;;;;;;;;5157566;27;20014;-79
2021/07/27 00:44:58;;;;;;;7.90;6.22;;;;;;;;;;5157708;27;20076;-80
2021/07/27 00:47:23;;;;;;;6.55;5.72;;;;;;;;;;5157695;27;20031;-80
2021/07/27 00:49:50;;;;;;;6.32;5.03;;;;;;;;;;5157352;27;20058;-80
2021/07/27 00:52:16;;;;;;;7.25;6.55;;;;;;;;;;5157369;27;20052;-79
2021/07/27 00:54:44;;;;;;;6.70;4.10;;;;;;;;;;5157320;27;20046;-79
2021/07/27 00:57:10;;;;;;;14.27;6.10;;;;;;;;;;5157472;27;20019;-79
2021/07/27 00:59:35;;;;;;;9.60;6.18;;;;;;;;;;5157128;27;20038;-79
2021/07/27 01:02:01;;;;;;;8.45;4.25;;;;;;;;;;5157153;27;20079;-79
2021/07/27 01:04:27;;;;;;;7.63;4.85;;;;;;;;;;5157042;27;20102;-79
2021/07/27 01:06:53;;;;;;;7.13;5.75;;;;;;;;;;5157255;27;20114;-80
2021/07/27 01:09:19;;;;;;;8.80;6.28;;;;;;;;;;5157080;27;20497;-80
2021/07/27 01:11:45;;;;;;;9.77;5.72;;;;;;;;;;5138727;27;20027;-79
2021/07/27 01:14:11;;;;;;;5.88;4.47;;;;;;;;;;5156952;27;20019;-79
2021/07/27 01:16:37;;;;;;;7.55;6.57;;;;;;;;;;5156708;27;20070;-79
2021/07/27 01:19:22;;;;;;;8.70;5.22;;;;;;;;;;5156715;27;20500;-79
2021/07/27 01:38:39;;;;;;;7.55;6.72;;;;;;;;;;5156701;27;20063;-79
2021/07/27 01:42:03;;;;;;;;;;;;;;;;;;5156535;27;20030;-80
2021/07/27 01:43:47;;;;;;;7.15;6.45;;;;;;;;;;5156234;27;19918;-80
2021/07/27 01:46:15;;;;;;;8.70;7.90;;;;;;;;;;5156065;27;20027;-80
2021/07/27 01:48:41;;;;;;;9.73;5.75;;;;;;;;;;5156514;27;20482;-80
2021/07/27 01:51:07;;;;;;;10.40;6.68;;;;;;;;;;5156453;27;20027;-79
2021/07/27 01:53:46;;;;;;;9.00;7.53;;;;;;;;;;5158201;27;20121;-78
2021/07/27 01:56:12;;;;;;;10.30;8.13;;;;;;;;;;5159644;27;20027;-79
2021/07/27 01:58:38;;;;;;;8.98;5.55;;;;;;;;;;5162457;27;20038;-79
2021/07/27 02:01:04;;;;;;;8.10;7.30;;;;;;;;;;5160593;27;20033;-80
2021/07/27 02:03:29;;;;;;;8.15;6.45;;;;;;;;;;5156291;27;20022;-79
2021/07/27 02:05:55;;;;;;;7.25;3.83;;;;;;;;;;5156300;27;20419;-80
2021/07/27 02:08:21;;;;;;;7.43;6.72;;;;;;;;;;5156052;27;20027;-79
2021/07/27 02:10:52;;;;;;;5.95;5.18;;;;;;;;;;5155843;27;20079;-79
2021/07/27 02:13:29;;;;;;;6.30;5.35;;;;;;;;;;5156028;27;20022;-80
2021/07/27 02:15:55;;;;;;;7.03;6.32;;;;;;;;;;5155748;27;20026;-79
2021/07/27 02:18:21;;;;;;;8.30;7.50;;;;;;;;;;5155903;27;20080;-80
2021/07/27 02:20:47;;;;;;;7.90;7.10;;;;;;;;;;5137209;27;20027;-79
2021/07/27 02:23:12;;;;;;;10.15;7.38;;;;;;;;;;5155903;27;20482;-79
2021/07/27 02:25:38;;;;;;;7.40;6.55;;;;;;;;;;5155416;27;20054;-79
2021/07/27 02:28:04;;;;;;;7.57;6.57;;;;;;;;;;5155667;27;20030;-79
2021/07/27 02:30:35;;;;;;;8.52;6.60;;;;;;;;;;5155480;27;20078;-79
2021/07/27 02:33:00;;;;;;;;;;;;;;;;;;5155945;27;20019;-80
2021/07/27 02:35:28;;;;;;;8.93;6.05;;;;;;;;;;5155631;27;19934;-79
2021/07/27 02:37:53;;;;;;;8.35;7.55;;;;;;;;;;5155500;27;20098;-79
2021/07/27 02:40:19;;;;;;;9.07;7.20;;;;;;;;;;5155314;27;20584;-79
2021/07/27 02:42:46;;;;;;;6.30;3.95;;;;;;;;;;5155398;27;20374;-79
2021/07/27 02:45:12;;;;;;;14.93;8.07;;;;;;;;;;5155340;27;20063;-79
2021/07/27 02:47:42;;;;;;;10.23;7.88;;;;;;;;;;5155299;27;20030;-79
2021/07/27 02:50:11;;;;;;;8.50;5.10;;;;;;;;;;5155444;27;20362;-80
2021/07/27 02:52:39;;;;;;;8.60;7.80;;;;;;;;;;5155352;27;20030;-79
2021/07/27 02:55:05;;;;;;;8.05;6.43;;;;;;;;;;5155212;27;20019;-80
2021/07/27 02:57:31;;;;;;;7.70;6.35;;;;;;;;;;5155180;27;20478;-79
2021/07/27 02:59:58;;;;;;;9.68;7.70;;;;;;;;;;5158677;27;20069;-79
2021/07/27 03:02:37;;;;;;;8.40;5.65;;;;;;;;;;5159462;27;20071;-79
2021/07/27 03:05:04;;;;;;;8.63;5.78;;;;;;;;;;5159465;27;20019;-80
2021/07/27 03:07:35;;;;;;;12.40;7.57;;;;;;;;;;5159396;27;20023;-79
2021/07/27 03:12:52;;;;;;;8.10;6.93;;;;;;;;;;5159705;27;20037;-79
2021/07/27 03:15:24;;;;;;;8.98;8.02;;;;;;;;;;5159326;27;20446;-79
2021/07/27 03:17:58;;;;;;;7.45;5.50;;;;;;;;;;5158996;27;20047;-79
2021/07/27 03:20:25;;;;;;;8.30;6.43;;;;;;;;;;5159317;27;20022;-79
2021/07/27 03:22:55;;;;;;;9.00;7.40;;;;;;;;;;5159273;27;20019;-79
2021/07/27 03:25:21;;;;;;;35.38;8.68;;;;;;;;;;5159125;27;20075;-80
2021/07/27 03:27:48;;;;;;;12.38;6.20;;;;;;;;;;5158920;27;20071;-79
2021/07/27 03:30:15;;;;;;;8.48;7.07;;;;;;;;;;5159004;27;20035;-79
2021/07/27 03:32:42;;;;;;;9.40;6.78;;;;;;;;;;5140300;27;20030;-79
2021/07/27 03:35:08;;;;;;;9.13;7.25;;;;;;;;;;5158915;27;20054;-79
2021/07/27 03:37:34;;;;;;;7.22;6.32;;;;;;;;;;5158916;27;20057;-79
2021/07/27 03:40:01;;;;;;;9.43;7.75;;;;;;;;;;5158780;27;20033;-79
2021/07/27 03:42:27;;;;;;;8.35;6.82;;;;;;;;;;5159377;27;20474;-79
2021/07/27 03:45:00;;;;;;;9.70;7.55;;;;;;;;;;5158619;27;20023;-79
2021/07/27 03:47:26;;;;;;;6.82;5.50;;;;;;;;;;5140339;27;20023;-79
2021/07/27 03:49:55;;;;;;;11.10;7.75;;;;;;;;;;5158789;27;20030;-79
2021/07/27 03:52:21;;;;;;;10.45;7.88;;;;;;;;;;5158559;27;20026;-80
2021/07/27 03:54:47;;;;;;;10.18;5.28;;;;;;;;;;5159124;27;20076;-79
2021/07/27 03:57:12;;;;;;;7.68;6.00;;;;;;;;;;5139821;27;20023;-79
2021/07/27 03:59:38;;;;;;;10.43;7.35;;;;;;;;;;5158356;27;20027;-80
2021/07/27 04:02:04;;;;;;;9.38;7.50;;;;;;;;;;5158360;27;20034;-78
2021/07/27 04:04:34;;;;;;;8.70;7.15;;;;;;;;;;5158817;27;20518;-80
2021/07/27 04:07:01;;;;;;;8.57;7.13;;;;;;;;;;5158309;27;20029;-78
2021/07/27 04:09:28;;;;;;;8.93;8.13;;;;;;;;;;5158429;27;20027;-78
2021/07/27 04:11:54;;;;;;;7.93;5.75;;;;;;;;;;5158245;27;20046;-78
2021/07/27 04:14:19;;;;;;;10.50;6.40;;;;;;;;;;5158433;27;20050;-78
2021/07/27 04:16:45;;;;;;;7.70;5.93;;;;;;;;;;5157945;27;20517;-81
2021/07/27 04:19:10;;;;;;;9.50;7.18;;;;;;;;;;5139311;27;20030;-80
2021/07/27 04:21:36;;;;;;;7.13;6.00;;;;;;;;;;5157931;27;20027;-80
2021/07/27 04:24:02;;;;;;;7.68;3.63;;;;;;;;;;5157876;27;20438;-79
2021/07/27 04:26:28;;;;;;;10.32;5.22;;;;;;;;;;5157918;27;20022;-79
2021/07/27 04:28:55;;;;;;;8.57;7.65;;;;;;;;;;5157960;27;20063;-79
2021/07/27 04:31:21;;;;;;;16.00;7.53;;;;;;;;;;5139298;27;20057;-79
2021/07/27 04:33:47;;;;;;;8.02;5.85;;;;;;;;;;5157655;27;20027;-79
2021/07/27 04:36:12;;;;;;;10.57;6.07;;;;;;;;;;5157661;27;20031;-79
2021/07/27 04:38:38;;;;;;;8.15;6.25;;;;;;;;;;5157561;27;20474;-79
2021/07/27 04:41:04;;;;;;;8.30;6.60;;;;;;;;;;5157504;27;20026;-80
2021/07/27 04:43:30;;;;;;;6.90;5.65;;;;;;;;;;5157537;27;20028;-81
2021/07/27 04:45:59;;;;;;;7.60;6.38;;;;;;;;;;5157429;27;20037;-83
2021/07/27 04:48:25;;;;;;;9.15;6.50;;;;;;;;;;5157585;27;20416;-80
2021/07/27 04:50:51;;;;;;;8.23;7.07;;;;;;;;;;5157480;27;20079;-80
2021/07/27 04:53:26;;;;;;;7.18;6.45;;;;;;;;;;5157449;27;20018;-81
2021/07/27 04:55:58;;;;;;;7.03;4.80;;;;;;;;;;5157529;27;20057;-82
2021/07/27 04:58:23;;;;;;;6.80;6.03;;;;;;;;;;5157296;27;20042;-81
2021/07/27 05:00:49;;;;;;;8.25;5.82;;;;;;;;;;5157161;27;20019;-81
2021/07/27 05:03:15;;;;;;;7.25;4.97;;;;;;;;;;5157361;27;20071;-81
2021/07/27 05:05:40;;;;;;;5.88;4.95;;;;;;;;;;5157062;27;20022;-81
2021/07/27 05:08:06;;;;;;;6.60;5.18;;;;;;;;;;5157055;27;20023;-81
2021/07/27 05:10:32;;;;;;;5.35;4.18;;;;;;;;;;5157061;27;20023;-81
2021/07/27 05:12:58;;;;;;;14.52;5.65;;;;;;;;;;5157057;27;20098;-82
2021/07/27 05:15:24;;;;;;;11.32;5.88;;;;;;;;;;5138443;27;20179;-82
2021/07/27 05:17:58;;;;;;;18.13;7.60;;;;;;;;;;5156644;27;20042;-82
2021/07/27 05:20:24;;;;;;;40.40;11.98;;;;;;;;;;5157205;27;20031;-84
2021/07/27 05:22:49;;;;;;;5.85;5.10;;;;;;;;;;5157446;27;20026;-86
2021/07/27 05:25:18;;;;;;;8.77;5.25;;;;;;;;;;5157146;27;20030;-84
2021/07/27 05:27:46;;;;;;;6.70;3.13;;;;;;;;;;5156769;27;20419;-85
2021/07/27 05:30:13;;;;;;;7.40;5.63;;;;;;;;;;5157017;27;20037;-84
2021/07/27 05:32:39;;;;;;;6.75;5.63;;;;;;;;;;5157538;27;20044;-84
2021/07/27 05:35:05;;;;;;;27.35;5.95;;;;;;;;;;5156764;27;20022;-82
2021/07/27 05:37:31;;;;;;;5.97;4.13;;;;;;;;;;5156688;27;20015;-82
2021/07/27 05:39:57;;;;;;;13.43;4.93;;;;;;;;;;5137722;27;20122;-82
2021/07/27 05:42:23;;;;;;;56.53;44.10;;;;;;;;;;5138025;27;20031;-83
2021/07/27 05:44:48;;;;;;;35.65;20.23;;;;;;;;;;5156341;27;20026;-83
2021/07/27 05:47:14;;;;;;;95.93;86.65;;;;;;;;;;5157403;27;20019;-82
2021/07/27 05:49:39;;;;;;;29.58;8.45;;;;;;;;;;5158174;27;20030;-82
2021/07/27 05:52:06;;;;;;;22.30;11.90;;;;;;;;;;5156864;27;20029;-83
2021/07/27 05:54:32;;;;;;;6.18;4.95;;;;;;;;;;5137843;27;20019;-85
2021/07/27 05:56:58;;;;;;;5.40;4.50;;;;;;;;;;5156154;27;20110;-86
2021/07/27 05:59:24;;;;;;;7.68;4.18;;;;;;;;;;5137417;27;20046;-85
2021/07/27 06:01:50;;;;;;;11.65;4.30;;;;;;;;;;5156028;27;20499;-81
2021/07/27 06:04:16;;;;;;;8.13;4.30;;;;;;;;;;5156035;27;20030;-82
2021/07/27 06:06:42;;;;;;;4.63;4.00;;;;;;;;;;5156028;27;20027;-82
2021/07/27 06:09:11;;;;;;;7.22;4.43;;;;;;;;;;5155939;27;20027;-83
2021/07/27 06:11:38;;;;;;;33.17;6.45;;;;;;;;;;5155814;27;20039;-81
2021/07/27 06:14:04;;;;;;;6.53;1.90;;;;;;;;;;5156703;27;20041;-85
2021/07/27 06:16:37;;;;;;;6.43;4.03;;;;;;;;;;5157084;27;20047;-83
2021/07/27 06:19:04;;;;;;;4.13;1.90;;;;;;;;;;5167809;27;20027;-83
2021/07/27 06:21:29;;;;;;;6.43;4.30;;;;;;;;;;5162266;27;20027;-83
2021/07/27 06:23:55;;;;;;;4.63;1.92;;;;;;;;;;5160942;27;20366;-84
2021/07/27 06:26:20;;;;;;;8.10;4.00;;;;;;;;;;5156804;27;20380;-86
2021/07/27 06:28:46;;;;;;;4.68;2.10;;;;;;;;;;5156372;27;20031;-82
2021/07/27 06:31:12;;;;;;;5.18;1.45;;;;;;;;;;5156481;27;20484;-83
2021/07/27 06:33:45;;;;;;;41.20;8.07;;;;;;;;;;5137188;27;20436;-83
2021/07/27 06:36:12;;;;;;;11.50;4.93;;;;;;;;;;5156099;27;20030;-81
2021/07/27 06:38:38;;;;;;;12.18;5.00;;;;;;;;;;5155600;27;20023;-82
2021/07/27 06:41:09;;;;;;;51.58;9.57;;;;;;;;;;5155920;27;20405;-82
2021/07/27 06:43:36;;;;;;;11.45;5.72;;;;;;;;;;5137388;27;20114;-83
2021/07/27 06:46:01;;;;;;;14.45;3.05;;;;;;;;;;5155362;27;20050;-83
2021/07/27 06:48:27;;;;;;;4.88;3.72;;;;;;;;;;5155474;27;20059;-81
2021/07/27 06:50:53;;;;;;;20.83;4.55;;;;;;;;;;5155267;27;20019;-85
2021/07/27 06:53:19;;;;;;;6.63;2.05;;;;;;;;;;5155621;27;20031;-82
2021/07/27 06:55:46;;;;;;;5.47;2.47;;;;;;;;;;5155438;27;20107;-81
2021/07/27 06:58:12;;;;;;;10.45;3.10;;;;;;;;;;5155360;27;20423;-81
2021/07/27 07:00:41;;;;;;;8.35;5.05;;;;;;;;;;5155268;27;20062;-81
2021/07/27 07:03:07;;;;;;;15.55;3.72;;;;;;;;;;5155101;27;20033;-82
2021/07/27 07:05:33;;;;;;;7.88;2.65;;;;;;;;;;5155185;27;20355;-82
2021/07/27 07:07:59;;;;;;;17.42;4.32;;;;;;;;;;5155590;27;20082;-81
2021/07/27 07:10:24;;;;;;;13.00;3.03;;;;;;;;;;5155453;27;20102;-82
2021/07/27 07:12:50;;;;;;;8.52;2.60;;;;;;;;;;5155050;27;20026;-80
2021/07/27 07:15:15;;;;;;;5.97;1.55;;;;;;;;;;5155043;27;20034;-83
2021/07/27 07:17:41;;;;;;;6.00;1.67;;;;;;;;;;5154839;27;20367;-82
2021/07/27 07:20:07;;;;;;;9.45;4.70;;;;;;;;;;5155263;27;20019;-82
2021/07/27 07:22:33;;;;;;;6.97;2.88;;;;;;;;;;5155267;27;20019;-82
2021/07/27 07:24:59;;;;;;;4.72;2.30;;;;;;;;;;5155092;27;20025;-82
2021/07/27 07:27:24;;;;;;;12.73;4.68;;;;;;;;;;5155341;27;20072;-83
2021/07/27 07:29:54;;;;;;;11.07;4.40;;;;;;;;;;5136493;27;20030;-80
2021/07/27 07:32:20;;;;;;;6.40;1.95;;;;;;;;;;5155017;27;20537;-82
2021/07/27 07:34:46;;;;;;;12.93;7.05;;;;;;;;;;5155081;27;20023;-84
2021/07/27 07:37:12;;;;;;;19.52;2.58;;;;;;;;;;5154967;27;20032;-81
2021/07/27 07:39:37;;;;;;;6.88;2.00;;;;;;;;;;5154775;27;20041;-80
2021/07/27 07:42:04;;;;;;;7.85;4.38;;;;;;;;;;5145522;27;20501;-82
2021/07/27 07:44:30;;;;;;;7.28;3.83;;;;;;;;;;5145509;27;20042;-85
2021/07/27 07:46:56;;;;;;;18.70;4.30;;;;;;;;;;5147534;27;20051;-86
2021/07/27 07:49:21;;;;;;;16.40;2.08;;;;;;;;;;5148466;27;20026;-84
2021/07/27 07:51:48;;;;;;;8.48;3.13;;;;;;;;;;5147625;27;20049;-84
2021/07/27 07:54:16;;;;;;;16.27;2.47;;;;;;;;;;5146851;27;20477;-87
2021/07/27 07:56:44;;;;;;;11.20;5.45;;;;;;;;;;5146911;27;20027;-85
2021/07/27 07:59:10;;;;;;;11.63;1.77;;;;;;;;;;5148425;27;20024;-82
2021/07/27 08:01:36;;;;;;;7.47;4.00;;;;;;;;;;5143038;27;20506;-81
2021/07/27 08:04:03;;;;;;;17.88;4.28;;;;;;;;;;5159153;27;20019;-82
2021/07/27 08:06:30;;;;;;;5.85;3.15;;;;;;;;;;5158685;27;20549;-82
2021/07/27 08:08:56;;;;;;;5.15;2.70;;;;;;;;;;5158219;27;20037;-83
2021/07/27 08:11:22;;;;;;;16.02;5.47;;;;;;;;;;5158841;27;20019;-82
2021/07/27 08:13:48;;;;;;;8.10;1.08;;;;;;;;;;5158839;27;20033;-82
2021/07/27 08:16:13;;;;;;;4.85;0.70;;;;;;;;;;5158209;27;20444;-82
2021/07/27 08:18:44;;;;;;;6.13;3.55;;;;;;;;;;5161168;27;20027;-81
2021/07/27 08:21:10;;;;;;;17.58;4.82;;;;;;;;;;5166803;27;20033;-83
2021/07/27 08:23:40;;;;;;;5.30;3.33;;;;;;;;;;5148747;27;20083;-80
2021/07/27 08:26:06;;;;;;;8.05;3.85;;;;;;;;;;5161597;27;20466;-83
2021/07/27 08:28:40;;;;;;;7.15;3.20;;;;;;;;;;5166345;27;20029;-83
2021/07/27 08:31:06;;;;;;;9.30;4.28;;;;;;;;;;5164002;27;20030;-84
2021/07/27 08:33:31;;;;;;;46.05;6.25;;;;;;;;;;5164809;27;20015;-82
2021/07/27 08:35:57;;;;;;;32.55;9.98;;;;;;;;;;5157843;27;20031;-82
2021/07/27 08:38:26;;;;;;;15.23;4.50;;;;;;;;;;5163764;27;20498;-84
2021/07/27 08:40:53;;;;;;;9.80;1.95;;;;;;;;;;5154036;27;20031;-83
2021/07/27 08:43:19;;;;;;;20.77;3.13;;;;;;;;;;5141573;27;20532;-82
2021/07/27 08:45:50;;;;;;;12.27;3.40;;;;;;;;;;5143674;27;20086;-82
2021/07/27 08:48:17;;;;;;;20.25;2.88;;;;;;;;;;5142968;27;20102;-84
2021/07/27 08:50:44;;;;;;;12.80;1.92;;;;;;;;;;5139527;27;20046;-82
2021/07/27 08:53:10;;;;;;;9.55;1.67;;;;;;;;;;5145245;27;20027;-86
2021/07/27 08:55:36;;;;;;;5.88;2.35;;;;;;;;;;5153091;27;20086;-83
2021/07/27 08:58:02;;;;;;;50.75;9.98;;;;;;;;;;5135103;27;20116;-84
2021/07/27 09:00:30;;;;;;;4.72;1.65;;;;;;;;;;5161782;27;20462;-89
2021/07/27 09:03:20;;;;;;;5.03;1.90;;;;;;;;;;5139700;27;20034;-83
2021/07/27 09:05:47;;;;;;;4.15;1.58;;;;;;;;;;5160655;27;20026;-82
2021/07/27 09:08:16;;;;;;;4.93;1.10;;;;;;;;;;5164775;27;20011;-82
2021/07/27 09:10:46;;;;;;;4.78;1.92;;;;;;;;;;5137704;27;20034;-82
2021/07/27 09:13:13;;;;;;;3.50;1.80;;;;;;;;;;5153876;27;20513;-81
2021/07/27 09:15:44;;;;;;;3.92;1.23;;;;;;;;;;5129676;27;20069;-82
2021/07/27 09:18:12;;;;;;;6.18;1.33;;;;;;;;;;5156811;27;20039;-80
2021/07/27 09:20:51;;;;;;;5.60;1.35;;;;;;;;;;5156714;27;20034;-81
2021/07/27 09:23:21;;;;;;;5.03;1.40;;;;;;;;;;5157053;27;20019;-82
2021/07/27 09:25:51;;;;;;;4.85;2.75;;;;;;;;;;5156815;27;20019;-82
2021/07/27 09:28:18;;;;;;;3.28;1.33;;;;;;;;;;5154784;27;20022;-83
2021/07/27 09:30:45;;;;;;;5.53;1.20;;;;;;;;;;5154529;27;20550;-81
2021/07/27 09:33:13;;;;;;;6.80;2.13;;;;;;;;;;5154723;27;20019;-83
2021/07/27 09:35:39;;;;;;;4.43;2.55;;;;;;;;;;5154597;27;20023;-82
2021/07/27 09:38:07;;;;;;;3.30;1.63;;;;;;;;;;5154422;27;20023;-84
2021/07/27 09:40:36;;;;;;;2.00;0.50;;;;;;;;;;5154428;27;20019;-83
2021/07/27 09:43:01;;;;;;;4.53;1.30;;;;;;;;;;5154646;27;20537;-83
2021/07/27 09:45:28;;;;;;;4.10;1.17;;;;;;;;;;5156345;27;20027;-85
2021/07/27 09:47:55;;;;;;;3.83;1.40;;;;;;;;;;5156258;27;20079;-84
2021/07/27 09:50:23;;;;;;;2.35;0.65;;;;;;;;;;5156221;27;20019;-84
2021/07/27 09:52:50;;;;;;;3.00;2.70;;;;;;;;;;5156125;27;20022;-84
2021/07/27 09:55:16;;;;;;;3.97;2.60;;;;;;;;;;5156115;27;20015;-84
2021/07/27 09:57:42;;;;;;;4.10;0.90;;;;;;;;;;5156225;27;20074;-84
2021/07/27 10:00:08;;;;;;;3.60;1.45;;;;;;;;;;5155941;27;20070;-84
2021/07/27 10:02:39;;;;;;;3.03;1.58;;;;;;;;;;5137437;27;20470;-84
2021/07/27 10:05:08;;;;;;;7.80;3.42;;;;;;;;;;5155949;27;20033;-83
2021/07/27 10:07:34;;;;;;;16.85;1.90;;;;;;;;;;5155953;27;20412;-83
2021/07/27 10:10:10;;;;;;;7.53;1.95;;;;;;;;;;5156088;27;20030;-83
2021/07/27 10:12:36;;;;;;;3.20;1.00;;;;;;;;;;5155883;27;20019;-84
2021/07/27 10:15:13;;;;;;;3.00;0.73;;;;;;;;;;5155744;27;20025;-84
2021/07/27 10:17:54;;;;;;;5.20;1.58;;;;;;;;;;5155673;27;20041;-83
2021/07/27 10:20:24;;;;;;;7.45;1.65;;;;;;;;;;5155584;27;20038;-83
2021/07/27 10:22:50;;;;;;;15.40;3.03;;;;;;;;;;5155653;27;20026;-84
2021/07/27 10:25:20;;;;;;;18.10;2.47;;;;;;;;;;5155573;27;20155;-85
2021/07/27 10:27:55;;;;;;;61.38;6.07;;;;;;;;;;5155515;27;20026;-86
2021/07/27 10:30:31;;;;;;;70.60;9.13;;;;;;;;;;5155553;27;20027;-86
2021/07/27 10:32:57;;;;;;;26.67;3.08;;;;;;;;;;5155618;27;20022;-85
2021/07/27 10:35:30;;;;;;;34.58;4.22;;;;;;;;;;5155477;27;20106;-86
2021/07/27 10:38:10;;;;;;;27.77;3.58;;;;;;;;;;5155372;27;20025;-86
2021/07/27 10:40:35;;;;;;;28.90;3.00;;;;;;;;;;5155534;27;20474;-87
2021/07/27 10:43:03;;;;;;;12.10;2.03;;;;;;;;;;5136967;27;20106;-85
2021/07/27 10:45:29;;;;;;;5.13;1.20;;;;;;;;;;5155373;27;20023;-84
2021/07/27 10:47:55;;;;;;;5.15;1.50;;;;;;;;;;5155348;27;20180;-84
2021/07/27 10:50:26;;;;;;;4.50;1.30;;;;;;;;;;5156128;27;20040;-84
2021/07/27 10:53:10;;;;;;;5.93;2.78;;;;;;;;;;5157038;27;20076;-84
2021/07/27 10:55:43;;;;;;;7.00;1.60;;;;;;;;;;5164824;27;20046;-84
2021/07/27 10:58:18;;;;;;;5.60;1.40;;;;;;;;;;5169510;27;20039;-84
2021/07/27 11:00:44;;;;;;;3.88;1.17;;;;;;;;;;5170684;27;20062;-83
2021/07/27 11:03:10;;;;;;;6.72;3.13;;;;;;;;;;5155737;27;20027;-83
2021/07/27 11:05:36;;;;;;;3.45;1.52;;;;;;;;;;5155991;27;20025;-86
2021/07/27 11:08:02;;;;;;;7.57;2.22;;;;;;;;;;5155641;27;20023;-84
2021/07/27 11:10:30;;;;;;;9.70;1.80;;;;;;;;;;5155206;27;20054;-85
2021/07/27 11:12:58;;;;;;;2.92;1.70;;;;;;;;;;5155635;27;20019;-85
2021/07/27 11:15:27;;;;;;;83.95;11.65;;;;;;;;;;5155293;27;20049;-83
2021/07/27 11:17:58;;;;;;;78.38;10.13;;;;;;;;;;5154913;27;20043;-87
2021/07/27 11:20:27;;;;;;;62.03;5.72;;;;;;;;;;5157550;27;20030;-85
2021/07/27 11:22:57;;;;;;;;;;;;;;;;;;5159670;27;20018;-86
2021/07/27 11:25:25;;;;;;;61.78;5.45;;;;;;;;;;5159111;27;20374;-86
2021/07/27 11:27:51;;;;;;;42.88;6.78;;;;;;;;;;5159021;27;20073;-84
2021/07/27 11:30:19;;;;;;;7.60;2.47;;;;;;;;;;5159139;27;20382;-84
2021/07/27 11:32:46;;;;;;;5.40;1.05;;;;;;;;;;5158943;27;20022;-85
2021/07/27 11:35:16;;;;;;;45.03;5.32;;;;;;;;;;5158828;27;20026;-86
2021/07/27 11:37:43;;;;;;;43.00;6.15;;;;;;;;;;5159208;27;20060;-88
2021/07/27 11:40:25;;;;;;;19.20;2.63;;;;;;;;;;5158856;27;20030;-86
2021/07/27 11:43:00;;;;;;;;;;;;;;;;;;5159394;27;20370;-86
2021/07/27 11:45:26;;;;;;;47.97;5.53;;;;;;;;;;5159246;27;20274;-85
2021/07/27 11:47:52;;;;;;;92.75;20.55;;;;;;;;;;5158658;27;20027;-86
2021/07/27 11:50:38;;;;;;;36.03;3.88;;;;;;;;;;5158598;27;20117;-82
2021/07/27 11:53:09;;;;;;;64.88;7.88;;;;;;;;;;5158490;27;20037;-84
2021/07/27 11:55:40;;;;;;;20.55;5.85;;;;;;;;;;5158461;27;20022;-82
2021/07/27 11:58:08;;;;;;;65.05;4.20;;;;;;;;;;5139817;27;20025;-86
2021/07/27 12:00:36;;;;;;;16.75;3.15;;;;;;;;;;5158396;27;20071;-84
2021/07/27 12:03:04;;;;;;;38.15;6.47;;;;;;;;;;5158800;27;20355;-84
2021/07/27 12:05:31;;;;;;;12.00;1.65;;;;;;;;;;5158358;27;20042;-86
2021/07/27 12:07:57;;;;;;;17.20;2.17;;;;;;;;;;5158441;27;20026;-83
2021/07/27 12:10:24;;;;;;;10.27;4.68;;;;;;;;;;5158326;27;20037;-84
2021/07/27 12:12:50;;;;;;;11.85;2.22;;;;;;;;;;5158235;27;20466;-85
2021/07/27 12:15:17;;;;;;;19.48;4.18;;;;;;;;;;5158079;27;20497;-85
2021/07/27 12:17:43;;;;;;;14.48;1.15;;;;;;;;;;5157775;27;20049;-84
2021/07/27 12:20:12;;;;;;;7.43;1.52;;;;;;;;;;5157977;27;20034;-85
2021/07/27 12:22:38;;;;;;;;;;;;;;;;;;5158262;27;20033;-85
2021/07/27 12:25:04;;;;;;;7.72;3.63;;;;;;;;;;5158366;27;20352;-83
2021/07/27 12:27:31;;;;;;;4.93;0.68;;;;;;;;;;5158098;27;20027;-84
2021/07/27 12:29:57;;;;;;;32.08;4.57;;;;;;;;;;5157870;27;20023;-84
2021/07/27 12:32:22;;;;;;;57.85;6.80;;;;;;;;;;5156739;27;20018;-82
2021/07/27 12:34:50;;;;;;;38.17;3.83;;;;;;;;;;5157702;27;20026;-82
2021/07/27 12:37:18;;;;;;;20.55;2.92;;;;;;;;;;5157715;27;20030;-81
2021/07/27 12:39:45;;;;;;;8.18;1.52;;;;;;;;;;5157642;27;20022;-82
2021/07/27 12:42:10;;;;;;;27.65;3.67;;;;;;;;;;5157613;27;20598;-84
2021/07/27 12:44:36;;;;;;;78.70;11.18;;;;;;;;;;5157606;27;20054;-89
2021/07/27 12:47:03;;;;;;;28.83;5.30;;;;;;;;;;5157468;27;20110;-90
2021/07/27 12:49:28;;;;;;;93.60;9.50;;;;;;;;;;5157449;27;20030;-81
2021/07/27 12:51:54;;;;;;;19.13;5.57;;;;;;;;;;5157396;27;20029;-84
2021/07/27 12:54:20;;;;;;;22.17;3.55;;;;;;;;;;5157449;27;20027;-81
2021/07/27 12:56:45;;;;;;;57.67;9.88;;;;;;;;;;5157389;27;20030;-82
2021/07/27 12:59:11;;;;;;;34.70;12.00;;;;;;;;;;5157293;27;20015;-82
2021/07/27 13:01:37;;;;;;;4.28;1.77;;;;;;;;;;5121600;27;20072;-81
2021/07/27 13:04:03;;;;;;;8.45;3.10;;;;;;;;;;5138655;27;20466;-87
2021/07/27 13:06:30;;;;;;;49.80;6.72;;;;;;;;;;5138652;27;20030;-82
2021/07/27 13:08:59;;;;;;;4.90;1.70;;;;;;;;;;5157165;27;20019;-82
2021/07/27 13:11:24;;;;;;;14.20;2.60;;;;;;;;;;5157242;27;20015;-81
2021/07/27 13:13:50;;;;;;;14.43;3.45;;;;;;;;;;5156944;27;20019;-83
2021/07/27 13:16:16;;;;;;;9.52;0.85;;;;;;;;;;5156922;27;20042;-84
2021/07/27 13:18:43;;;;;;;34.17;7.47;;;;;;;;;;5156834;27;20023;-82
2021/07/27 13:21:09;;;;;;;28.73;7.28;;;;;;;;;;5156811;27;20027;-83
2021/07/27 13:23:35;;;;;;;27.17;10.50;;;;;;;;;;5156726;27;20373;-82
2021/07/27 13:26:01;;;;;;;12.77;3.53;;;;;;;;;;5156755;27;20018;-82
2021/07/27 13:28:27;;;;;;;22.20;11.18;;;;;;;;;;5156675;27;20420;-83
2021/07/27 13:30:52;;;;;;;5.95;1.95;;;;;;;;;;5156666;27;20097;-85
2021/07/27 13:33:18;;;;;;;18.23;6.32;;;;;;;;;;5156773;27;20377;-82
2021/07/27 13:35:44;;;;;;;3.15;1.48;;;;;;;;;;5156718;27;20023;-83
2021/07/27 13:38:09;;;;;;;9.15;2.22;;;;;;;;;;5138530;27;20026;-82
2021/07/27 13:40:35;;;;;;;26.63;5.43;;;;;;;;;;5156419;27;20087;-81
2021/07/27 13:43:01;;;;;;;42.00;9.35;;;;;;;;;;5156434;27;20493;-81
2021/07/27 13:45:27;;;;;;;12.00;4.22;;;;;;;;;;5156373;27;20027;-81
2021/07/27 13:47:54;;;;;;;2.90;0.70;;;;;;;;;;5156242;27;20018;-82
2021/07/27 13:50:20;;;;;;;12.98;4.10;;;;;;;;;;5156732;27;20025;-81
2021/07/27 13:52:46;;;;;;;3.33;1.33;;;;;;;;;;5156123;27;20019;-81
2021/07/27 13:55:12;;;;;;;4.93;1.80;;;;;;;;;;5156187;27;20026;-81
2021/07/27 13:57:38;;;;;;;3.80;1.83;;;;;;;;;;5156119;27;20025;-81
2021/07/27 14:00:07;;;;;;;8.38;1.27;;;;;;;;;;5155944;27;20034;-82
2021/07/27 14:02:33;;;;;;;5.18;1.73;;;;;;;;;;5155982;27;20030;-81
2021/07/27 14:04:59;;;;;;;3.40;1.88;;;;;;;;;;5155973;27;20014;-81
2021/07/27 14:07:24;;;;;;;5.50;3.15;;;;;;;;;;5137299;27;20035;-80
2021/07/27 14:09:57;;;;;;;5.32;1.30;;;;;;;;;;5155874;27;20542;-81
2021/07/27 14:12:22;;;;;;;7.32;1.30;;;;;;;;;;5155947;27;20027;-80
2021/07/27 14:14:48;;;;;;;4.50;1.27;;;;;;;;;;5155724;27;20359;-80
2021/07/27 14:17:14;;;;;;;3.55;0.73;;;;;;;;;;5155594;27;20050;-80
2021/07/27 14:19:39;;;;;;;4.40;1.83;;;;;;;;;;5156186;27;20018;-81
2021/07/27 14:22:06;;;;;;;27.92;2.38;;;;;;;;;;5155484;27;20051;-80
2021/07/27 14:24:32;;;;;;;11.98;1.35;;;;;;;;;;5155564;27;20026;-80
2021/07/27 14:27:00;;;;;;;11.20;1.38;;;;;;;;;;5155704;27;20023;-80
2021/07/27 14:29:25;;;;;;;3.80;2.78;;;;;;;;;;5155503;27;20054;-80
2021/07/27 14:31:53;;;;;;;3.63;1.65;;;;;;;;;;5155488;27;20061;-80
2021/07/27 14:34:19;;;;;;;6.00;1.25;;;;;;;;;;5155652;27;20602;-80
2021/07/27 14:36:45;;;;;;;6.93;1.10;;;;;;;;;;5155641;27;20050;-80
2021/07/27 14:39:10;;;;;;;18.42;3.50;;;;;;;;;;5136771;27;20050;-80
2021/07/27 14:41:36;;;;;;;12.45;2.85;;;;;;;;;;5155383;27;20106;-81
2021/07/27 14:44:02;;;;;;;3.92;1.52;;;;;;;;;;5155546;27;20126;-80
2021/07/27 14:46:28;;;;;;;25.55;3.00;;;;;;;;;;5155304;27;20068;-80
2021/07/27 14:48:54;;;;;;;74.82;5.55;;;;;;;;;;5155222;27;20014;-80
2021/07/27 14:51:20;;;;;;;295.88;25.23;;;;;;;;;;5155223;27;20023;-80
2021/07/27 14:53:46;;;;;;;252.65;27.27;;;;;;;;;;5154687;27;20034;-80
2021/07/27 14:56:11;;;;;;;11.57;1.58;;;;;;;;;;5155156;27;20378;-80
2021/07/27 14:58:37;;;;;;;15.02;2.25;;;;;;;;;;5155375;27;20019;-80